Time;durP1;ratioP1;P1;durP2;ratioP2;P2;SDS_P1;SDS_P2;PMS_P1;PMS_P2;Temp;Humidity;BMP_temperature;BMP_pressure;BME280_temperature;BME280_humidity;BME280_pressure;Samples;Min_cycle;Max_cycle;Signal;HPM_P1;HPM_P2
2022/09/14 00:02:01;;;;;;;4.10;2.35;;;;;;;24.49;47.40;100943.53;4996906;28;20111;-73
2022/09/14 00:04:26;;;;;;;2.28;1.95;;;;;;;24.48;47.42;100939.25;4994244;28;20042;-73
2022/09/14 00:06:52;;;;;;;5.05;2.22;;;;;;;24.47;47.32;100945.59;4980370;28;20104;-73
2022/09/14 00:09:21;;;;;;;3.28;2.42;;;;;;;24.42;47.39;100932.09;4991450;28;20053;-73
2022/09/14 00:11:47;;;;;;;5.38;2.30;;;;;;;24.49;47.38;100937.41;4992964;28;20057;-73
2022/09/14 00:14:13;;;;;;;2.65;2.03;;;;;;;24.50;47.33;100937.19;4995490;28;20041;-73
2022/09/14 00:16:40;;;;;;;4.18;2.08;;;;;;;24.51;47.41;100930.03;4997477;28;20399;-73
2022/09/14 00:19:27;;;;;;;4.13;2.22;;;;;;;24.46;47.51;100927.16;4991977;28;20120;-73
2022/09/14 00:21:57;;;;;;;3.75;2.00;;;;;;;24.47;47.47;100928.81;4996007;28;20057;-73
2022/09/14 00:24:24;;;;;;;4.28;2.25;;;;;;;24.48;47.42;100925.13;4993511;28;20052;-73
2022/09/14 00:26:51;;;;;;;3.30;2.03;;;;;;;24.48;47.36;100922.44;4995682;28;20484;-72
2022/09/14 00:29:17;;;;;;;3.00;2.00;;;;;;;24.48;47.32;100919.78;4987128;28;20184;-72
2022/09/14 00:31:42;;;;;;;3.63;1.95;;;;;;;24.44;47.39;100922.06;4994106;28;20044;-72
2022/09/14 00:34:11;;;;;;;4.47;2.28;;;;;;;24.44;47.47;100926.56;4992108;28;20054;-73
2022/09/14 00:36:41;;;;;;;3.87;2.00;;;;;;;24.47;47.38;100928.81;4997254;28;20046;-72
2022/09/14 00:39:07;;;;;;;4.35;2.03;;;;;;;24.43;47.47;100924.94;4994080;28;20116;-72
2022/09/14 00:41:36;;;;;;;2.72;1.92;;;;;;;24.39;47.57;100914.66;4993436;28;20049;-72
2022/09/14 00:44:04;;;;;;;3.65;2.30;;;;;;;24.37;47.47;100915.91;4993425;28;20113;-73
2022/09/14 00:46:34;;;;;;;3.17;2.30;;;;;;;24.31;47.25;100893.63;4977399;28;20038;-73
2022/09/14 00:49:01;;;;;;;3.88;2.00;;;;;;;24.43;47.44;100906.28;4993187;28;20037;-72
2022/09/14 00:51:30;;;;;;;3.13;2.03;;;;;;;24.46;47.42;100903.22;4994310;28;20558;-73
2022/09/14 00:53:56;;;;;;;3.65;2.10;;;;;;;24.41;47.65;100898.50;4991406;28;20733;-72
2022/09/14 00:56:21;;;;;;;4.15;2.30;;;;;;;24.38;47.46;100894.41;4992023;28;20045;-73
2022/09/14 00:58:50;;;;;;;3.45;1.73;;;;;;;24.38;47.57;100896.25;4996713;28;20061;-72
2022/09/14 01:01:16;;;;;;;3.00;1.98;;;;;;;24.35;47.48;100884.19;4993678;28;20045;-73
2022/09/14 01:03:42;;;;;;;2.08;1.77;;;;;;;24.40;47.57;100880.88;4975973;28;20060;-73
2022/09/14 01:06:39;;;;;;;2.83;1.85;;;;;;;24.44;47.54;100889.31;4972559;28;20038;-72
2022/09/14 01:09:23;;;;;;;3.78;1.90;;;;;;;24.39;47.48;100880.06;4992148;28;20048;-72
2022/09/14 01:12:24;;;;;;;3.15;1.88;;;;;;;24.39;47.56;100885.41;4995217;28;20124;-73
2022/09/14 01:15:10;;;;;;;4.25;2.47;;;;;;;24.38;47.67;100878.44;4993369;28;20093;-73
2022/09/14 01:17:44;;;;;;;2.85;1.73;;;;;;;24.35;47.74;100884.19;4994454;28;20149;-73
2022/09/14 01:20:20;;;;;;;2.80;1.63;;;;;;;24.36;48.09;100882.34;4992110;28;20042;-73
2022/09/14 01:23:10;;;;;;;2.58;1.65;;;;;;;24.38;47.53;100866.97;4996707;28;20062;-72
2022/09/14 01:25:44;;;;;;;3.40;2.20;;;;;;;24.39;47.60;100869.44;4994919;28;20046;-72
2022/09/14 01:28:20;;;;;;;5.32;2.20;;;;;;;24.35;47.51;100868.22;4993735;28;20085;-72
2022/09/14 01:30:48;;;;;;;3.00;1.88;;;;;;;24.36;47.59;100863.72;4995081;28;20047;-72
2022/09/14 01:33:32;;;;;;;1.90;1.60;;;;;;;24.35;47.65;100859.41;4989264;28;20124;-72
2022/09/14 01:36:01;;;;;;;4.68;1.90;;;;;;;24.38;47.55;100865.13;4994251;28;20033;-72
2022/09/14 01:38:39;;;;;;;3.00;1.80;;;;;;;24.35;47.57;100864.75;4998074;28;20120;-72
2022/09/14 01:41:08;;;;;;;2.83;1.90;;;;;;;24.36;47.70;100867.19;4994161;28;20587;-72
2022/09/14 01:43:47;;;;;;;1.75;1.65;;;;;;;24.33;47.74;100869.44;4999180;28;20056;-72
2022/09/14 01:46:16;;;;;;;2.30;1.73;;;;;;;24.31;47.79;100860.88;4999249;28;20104;-73
2022/09/14 01:48:50;;;;;;;2.35;1.60;;;;;;;24.17;47.49;100840.59;4998264;28;20058;-73
2022/09/14 01:51:21;;;;;;;2.20;1.98;;;;;;;24.28;47.79;100859.41;4996700;28;20044;-73
2022/09/14 01:53:54;;;;;;;2.28;1.73;;;;;;;24.31;47.40;100852.88;4994504;28;20637;-72
2022/09/14 01:56:31;;;;;;;1.85;1.52;;;;;;;24.31;47.58;100852.88;4995590;28;20041;-72
2022/09/14 01:59:12;;;;;;;2.40;1.90;;;;;;;24.28;47.68;100851.44;4999274;28;20485;-73
2022/09/14 02:01:50;;;;;;;3.03;2.05;;;;;;;24.31;47.57;100851.03;4992387;28;20038;-72
2022/09/14 02:04:24;;;;;;;1.67;1.52;;;;;;;24.31;47.55;100845.72;4996166;28;20030;-72
2022/09/14 02:06:49;;;;;;;3.67;2.00;;;;;;;24.29;47.70;100846.94;4999471;28;20041;-73
2022/09/14 02:09:20;;;;;;;2.85;1.80;;;;;;;24.29;47.64;100841.63;4996637;28;20092;-72
2022/09/14 02:11:46;;;;;;;1.58;1.48;;;;;;;24.26;47.75;100836.69;4996872;28;20046;-72
2022/09/14 02:14:11;;;;;;;2.95;1.80;;;;;;;24.29;47.67;100842.44;4995107;28;20046;-73
2022/09/14 02:16:38;;;;;;;1.92;1.75;;;;;;;24.26;47.73;100844.69;4998185;28;20034;-72
2022/09/14 02:19:04;;;;;;;2.28;1.80;;;;;;;24.27;47.69;100836.50;4995057;28;20053;-72
2022/09/14 02:21:31;;;;;;;3.13;1.90;;;;;;;24.25;47.47;100845.72;4998575;28;20040;-72
2022/09/14 02:23:58;;;;;;;3.47;1.95;;;;;;;24.20;47.75;100833.00;4997471;28;20042;-72
2022/09/14 02:26:25;;;;;;;2.22;1.60;;;;;;;24.26;47.78;100829.53;4992467;28;20037;-73
2022/09/14 02:28:54;;;;;;;3.58;2.28;;;;;;;24.27;47.70;100825.03;4997702;28;20097;-72
2022/09/14 02:31:41;;;;;;;3.30;1.65;;;;;;;24.25;47.66;100817.25;4996328;28;20046;-73
2022/09/14 02:34:21;;;;;;;2.20;1.90;;;;;;;24.23;47.74;100821.94;4996690;28;20174;-73
2022/09/14 02:37:10;;;;;;;2.08;1.80;;;;;;;24.24;47.66;100820.13;4999331;28;20038;-72
2022/09/14 02:39:59;;;;;;;1.83;1.73;;;;;;;24.24;47.50;100825.44;4995149;28;20607;-71
2022/09/14 02:42:33;;;;;;;;;;;;;;;24.24;47.63;100828.94;4997923;28;20072;-71
2022/09/14 02:44:59;;;;;;;2.17;1.98;;;;;;;24.28;47.56;100824.00;4998443;28;19987;-72
2022/09/14 02:47:34;;;;;;;3.05;2.08;;;;;;;24.21;47.75;100818.69;4997102;28;20551;-71
2022/09/14 02:50:09;;;;;;;2.53;1.77;;;;;;;24.25;47.71;100829.75;4997385;28;20042;-71
2022/09/14 02:52:50;;;;;;;2.17;1.83;;;;;;;24.21;47.60;100821.34;4997043;28;20457;-72
2022/09/14 02:55:22;;;;;;;2.20;1.60;;;;;;;24.23;47.65;100821.13;4994277;28;20387;-71
2022/09/14 02:58:01;;;;;;;3.72;1.85;;;;;;;24.17;47.70;100825.44;4992318;28;20034;-71
2022/09/14 03:00:29;;;;;;;2.20;1.53;;;;;;;24.21;47.80;100818.69;4996289;28;20038;-72
2022/09/14 03:02:55;;;;;;;1.85;1.63;;;;;;;24.22;47.63;100827.47;4996056;28;20479;-72
2022/09/14 03:05:21;;;;;;;3.67;1.70;;;;;;;24.20;47.66;100811.72;4998268;28;20030;-72
2022/09/14 03:07:46;;;;;;;2.33;1.70;;;;;;;24.21;47.70;100812.53;4996388;28;20048;-72
2022/09/14 03:10:12;;;;;;;2.50;1.80;;;;;;;24.22;47.53;100803.53;4994801;28;20033;-71
2022/09/14 03:12:38;;;;;;;2.28;1.80;;;;;;;24.22;47.63;100803.53;4991808;28;20046;-71
2022/09/14 03:15:05;;;;;;;2.67;1.63;;;;;;;24.23;47.60;100805.97;4998910;28;20143;-71
2022/09/14 03:17:30;;;;;;;2.13;1.63;;;;;;;24.17;47.71;100804.16;4996079;28;20041;-72
2022/09/14 03:19:56;;;;;;;3.15;1.75;;;;;;;24.22;47.71;100803.53;4979359;28;20087;-72
2022/09/14 03:22:21;;;;;;;1.85;1.60;;;;;;;24.21;47.63;100801.91;4996228;28;20052;-71
2022/09/14 03:24:47;;;;;;;2.88;1.95;;;;;;;24.18;47.78;100802.31;4979976;28;20117;-72
2022/09/14 03:27:12;;;;;;;3.50;1.63;;;;;;;24.22;47.71;100795.53;4979548;28;20041;-71
2022/09/14 03:29:38;;;;;;;2.47;1.40;;;;;;;24.21;47.68;100794.72;4996916;28;20279;-72
2022/09/14 03:32:03;;;;;;;1.88;1.67;;;;;;;24.17;47.79;100793.53;4994712;28;20037;-72
2022/09/14 03:34:29;;;;;;;2.58;1.70;;;;;;;24.17;47.83;100784.72;4993444;28;20097;-72
2022/09/14 03:36:54;;;;;;;2.80;1.70;;;;;;;24.17;47.65;100790.84;4996604;28;20400;-72
2022/09/14 03:39:20;;;;;;;2.17;1.83;;;;;;;24.15;47.72;100789.44;4997453;28;20044;-71
2022/09/14 03:41:45;;;;;;;3.33;1.85;;;;;;;24.19;47.55;100786.13;4993179;28;20053;-72
2022/09/14 03:44:11;;;;;;;1.98;1.58;;;;;;;24.19;47.59;100788.00;4981254;28;20050;-72
2022/09/14 03:46:37;;;;;;;2.28;1.73;;;;;;;24.18;47.58;100784.50;4994970;28;20041;-73
2022/09/14 03:49:05;;;;;;;2.13;1.75;;;;;;;24.18;47.66;100781.84;4995824;28;20073;-73
2022/09/14 03:51:33;;;;;;;3.15;1.77;;;;;;;24.15;47.66;100776.13;4977314;28;20034;-73
2022/09/14 03:53:58;;;;;;;2.00;1.80;;;;;;;24.19;47.60;100778.16;4994409;28;21070;-72
2022/09/14 03:56:24;;;;;;;1.95;1.55;;;;;;;24.19;47.45;100772.03;4976116;28;20053;-72
2022/09/14 03:58:50;;;;;;;1.88;1.50;;;;;;;24.18;47.59;100765.06;4995979;28;20081;-72
2022/09/14 04:01:18;;;;;;;2.05;1.50;;;;;;;24.16;47.63;100770.59;4992349;28;20041;-72
2022/09/14 04:03:44;;;;;;;1.92;1.58;;;;;;;24.14;47.75;100770.00;4995318;28;20041;-71
2022/09/14 04:06:11;;;;;;;2.08;1.65;;;;;;;24.17;47.65;100766.91;4995977;28;20037;-71
2022/09/14 04:08:38;;;;;;;2.47;1.75;;;;;;;24.16;47.68;100770.59;4993664;28;20049;-71
2022/09/14 04:11:18;;;;;;;2.17;1.70;;;;;;;24.09;47.89;100759.19;4996338;28;20030;-72
2022/09/14 04:13:44;;;;;;;2.03;1.73;;;;;;;24.15;47.56;100766.31;4996160;28;20038;-71
2022/09/14 04:16:10;;;;;;;1.50;1.38;;;;;;;24.15;47.52;100761.00;4995199;28;20495;-71
2022/09/14 04:18:36;;;;;;;1.90;1.42;;;;;;;24.16;47.65;100754.63;4992669;28;20121;-71
2022/09/14 04:21:05;;;;;;;2.38;1.80;;;;;;;24.15;47.63;100761.00;4994994;28;20026;-71
2022/09/14 04:23:31;;;;;;;2.00;1.77;;;;;;;24.15;47.64;100766.31;4994614;28;20063;-71
2022/09/14 04:25:57;;;;;;;1.88;1.58;;;;;;;24.16;47.67;100765.28;4995539;28;20034;-71
2022/09/14 04:28:23;;;;;;;2.88;1.60;;;;;;;24.15;47.56;100763.66;4991904;28;20163;-71
2022/09/14 04:30:59;;;;;;;3.53;2.25;;;;;;;24.17;47.45;100771.41;4994187;28;20048;-71
2022/09/14 04:33:29;;;;;;;2.15;1.70;;;;;;;24.16;47.55;100773.25;4992498;28;20088;-71
2022/09/14 04:36:06;;;;;;;2.72;1.80;;;;;;;24.16;47.57;100754.63;4990438;28;20180;-71
2022/09/14 04:38:33;;;;;;;1.48;1.38;;;;;;;24.14;47.81;100750.56;4995444;28;21581;-71
2022/09/14 04:40:59;;;;;;;1.95;1.60;;;;;;;24.07;47.81;100754.06;4994872;28;20628;-71
2022/09/14 04:43:26;;;;;;;2.42;1.52;;;;;;;24.10;47.71;100756.31;4974018;28;20045;-72
2022/09/14 04:45:52;;;;;;;2.03;1.80;;;;;;;24.09;47.76;100738.72;4995734;28;20092;-71
2022/09/14 04:48:18;;;;;;;2.15;1.58;;;;;;;24.15;47.56;100742.38;4992799;28;20046;-71
2022/09/14 04:50:44;;;;;;;2.83;1.48;;;;;;;24.17;47.64;100736.84;4991477;28;20045;-71
2022/09/14 04:53:10;;;;;;;2.42;2.00;;;;;;;24.15;47.65;100742.38;4993363;28;20093;-71
2022/09/14 04:55:36;;;;;;;2.25;2.05;;;;;;;24.15;47.65;100746.88;4995112;28;20038;-72
2022/09/14 04:58:01;;;;;;;2.90;1.73;;;;;;;24.15;47.55;100747.69;4994178;28;20044;-72
2022/09/14 05:00:27;;;;;;;2.83;1.80;;;;;;;24.12;47.60;100740.13;4993479;28;21928;-72
2022/09/14 05:02:52;;;;;;;2.13;1.60;;;;;;;24.13;47.59;100749.75;4997430;28;20401;-72
2022/09/14 05:05:18;;;;;;;1.85;1.63;;;;;;;24.13;47.56;100752.41;4996432;28;20088;-72
2022/09/14 05:07:43;;;;;;;2.70;1.65;;;;;;;24.14;47.55;100742.56;4996050;28;20936;-72
2022/09/14 05:10:10;;;;;;;1.60;1.38;;;;;;;24.16;47.60;100748.50;4977421;28;20053;-71
2022/09/14 05:12:35;;;;;;;2.35;1.60;;;;;;;24.14;47.59;100747.91;4994954;28;20049;-72
2022/09/14 05:15:01;;;;;;;1.95;1.65;;;;;;;24.09;47.69;100751.19;4999879;28;20040;-72
2022/09/14 05:17:26;;;;;;;1.60;1.50;;;;;;;24.14;47.48;100735.41;4997825;28;20045;-72
2022/09/14 05:19:52;;;;;;;2.33;1.60;;;;;;;23.99;47.59;100717.03;4996535;28;20089;-72
2022/09/14 05:22:19;;;;;;;2.58;2.00;;;;;;;24.08;47.71;100736.25;4998006;28;20042;-72
2022/09/14 05:24:44;;;;;;;2.28;1.83;;;;;;;24.10;47.72;100732.38;4999858;28;20803;-72
2022/09/14 05:27:10;;;;;;;2.65;1.60;;;;;;;24.10;47.62;100736.88;4996125;28;20050;-72
2022/09/14 05:29:38;;;;;;;2.88;1.90;;;;;;;24.09;47.73;100738.72;4997002;28;20080;-73
2022/09/14 05:32:03;;;;;;;2.35;1.83;;;;;;;24.09;47.46;100735.22;4997334;28;20569;-72
2022/09/14 05:34:29;;;;;;;3.28;1.63;;;;;;;24.09;47.81;100729.91;4995862;28;20037;-72
2022/09/14 05:36:54;;;;;;;1.50;1.38;;;;;;;24.06;47.77;100728.50;4996903;28;20038;-71
2022/09/14 05:39:21;;;;;;;3.08;1.77;;;;;;;24.11;47.66;100727.84;4997811;28;20037;-71
2022/09/14 05:41:48;;;;;;;2.42;1.70;;;;;;;24.10;47.65;100739.53;4975931;28;20106;-72
2022/09/14 05:44:14;;;;;;;1.52;1.40;;;;;;;24.09;47.62;100730.72;4997143;28;20099;-72
2022/09/14 05:46:39;;;;;;;4.07;1.70;;;;;;;24.08;47.63;100723.78;4997005;28;20037;-72
2022/09/14 05:49:05;;;;;;;1.77;1.65;;;;;;;24.08;47.54;100718.47;4993665;28;20058;-71
2022/09/14 05:51:30;;;;;;;2.58;1.85;;;;;;;24.08;47.70;100715.81;4996448;28;20046;-71
2022/09/14 05:53:57;;;;;;;2.13;1.70;;;;;;;24.10;47.68;100718.25;4975527;28;20042;-72
2022/09/14 05:56:25;;;;;;;2.13;1.60;;;;;;;24.09;47.69;100713.94;4996332;28;20204;-72
2022/09/14 05:58:52;;;;;;;2.90;1.60;;;;;;;24.10;47.68;100726.22;4996510;28;20399;-72
2022/09/14 06:01:21;;;;;;;1.88;1.58;;;;;;;24.10;47.42;100718.25;4978107;28;20440;-72
2022/09/14 06:03:47;;;;;;;;;;;;;;;24.09;47.58;100703.31;4999148;28;20053;-72
2022/09/14 06:06:16;;;;;;;5.10;1.90;;;;;;;24.13;47.69;100707.19;4995445;28;19921;-73
2022/09/14 06:08:42;;;;;;;2.53;1.75;;;;;;;24.12;47.54;100705.53;4999349;28;20069;-72
2022/09/14 06:11:13;;;;;;;3.92;1.90;;;;;;;24.11;47.59;100723.34;4998179;28;20945;-74
2022/09/14 06:13:39;;;;;;;1.63;1.52;;;;;;;24.11;47.54;100726.00;4987603;28;20041;-73
2022/09/14 06:16:10;;;;;;;2.17;1.60;;;;;;;24.11;47.53;100722.53;5005702;28;20080;-74
2022/09/14 06:18:37;;;;;;;2.28;1.45;;;;;;;24.11;47.58;100719.88;4998024;28;20073;-73
2022/09/14 06:21:03;;;;;;;1.73;1.60;;;;;;;24.13;47.30;100717.00;5000633;28;20088;-73
2022/09/14 06:23:30;;;;;;;1.75;1.50;;;;;;;24.08;47.68;100705.16;4985789;28;20052;-74
2022/09/14 06:25:57;;;;;;;5.13;1.75;;;;;;;24.09;47.77;100711.28;4999776;28;20037;-73
2022/09/14 06:28:24;;;;;;;1.60;1.50;;;;;;;24.08;47.63;100714.97;5000452;28;20463;-73
2022/09/14 06:30:50;;;;;;;1.58;1.40;;;;;;;24.05;47.68;100720.69;4999544;28;20392;-74
2022/09/14 06:33:18;;;;;;;2.08;1.67;;;;;;;24.08;47.52;100717.63;4981506;28;20173;-74
2022/09/14 06:35:54;;;;;;;2.08;1.52;;;;;;;24.09;47.47;100711.28;4998357;28;20030;-74
2022/09/14 06:38:20;;;;;;;1.70;1.60;;;;;;;24.08;47.61;100718.47;4998827;28;20735;-74
2022/09/14 06:40:56;;;;;;;1.70;1.52;;;;;;;24.07;47.63;100714.16;4981767;28;20038;-74
2022/09/14 06:43:23;;;;;;;2.38;1.60;;;;;;;24.07;47.59;100716.81;5001849;28;20575;-73
2022/09/14 06:46:03;;;;;;;2.35;1.25;;;;;;;24.05;47.58;100718.84;4999483;28;20112;-74
2022/09/14 06:48:31;;;;;;;1.63;1.33;;;;;;;24.08;47.60;100721.13;5002336;28;20111;-73
2022/09/14 06:50:56;;;;;;;2.38;1.60;;;;;;;24.09;47.59;100730.72;4997664;28;20757;-74
2022/09/14 06:53:22;;;;;;;1.58;1.42;;;;;;;24.10;47.68;100723.56;5002107;28;20124;-73
2022/09/14 06:55:48;;;;;;;2.30;1.80;;;;;;;24.10;47.61;100721.72;4996825;28;20550;-74
2022/09/14 06:58:14;;;;;;;2.72;1.50;;;;;;;24.09;47.55;100729.91;4997837;28;20287;-74
2022/09/14 07:00:39;;;;;;;3.40;1.85;;;;;;;24.08;47.55;100736.25;4999193;28;20037;-74
2022/09/14 07:03:05;;;;;;;2.80;1.73;;;;;;;24.08;47.58;100739.75;4996747;28;20041;-74
2022/09/14 07:05:31;;;;;;;3.30;1.80;;;;;;;24.14;47.55;100731.94;5000948;28;20045;-74
2022/09/14 07:07:56;;;;;;;1.88;1.30;;;;;;;24.10;47.73;100735.03;5004329;28;20555;-75
2022/09/14 07:10:26;;;;;;;1.27;1.23;;;;;;;24.10;47.54;100740.34;5001473;28;20559;-75
2022/09/14 07:12:53;;;;;;;1.70;1.60;;;;;;;24.06;47.56;100731.16;4981534;28;20516;-74
2022/09/14 07:15:20;;;;;;;2.88;1.80;;;;;;;24.10;47.46;100744.84;5000384;28;20057;-74
2022/09/14 07:17:46;;;;;;;2.53;1.48;;;;;;;24.14;47.63;100746.06;5002911;28;20045;-74
2022/09/14 07:20:14;;;;;;;1.98;1.60;;;;;;;24.13;47.43;100744.41;5001204;28;20089;-73
2022/09/14 07:22:40;;;;;;;3.30;1.70;;;;;;;24.12;47.48;100748.13;5001481;28;20507;-74
2022/09/14 07:25:06;;;;;;;2.53;1.60;;;;;;;24.11;47.42;100747.28;4998386;28;20121;-74
2022/09/14 07:27:32;;;;;;;2.33;1.60;;;;;;;24.16;47.36;100743.19;5006548;28;20045;-73
2022/09/14 07:29:57;;;;;;;2.20;1.30;;;;;;;24.15;47.46;100746.88;4998067;28;20034;-74
2022/09/14 07:32:23;;;;;;;2.28;1.83;;;;;;;24.17;47.53;100742.16;5000234;28;20049;-74
2022/09/14 07:34:49;;;;;;;2.13;1.50;;;;;;;24.16;47.48;100745.84;5000580;28;20045;-73
2022/09/14 07:37:14;;;;;;;1.60;1.50;;;;;;;24.16;47.26;100746.66;4999518;28;20037;-74
2022/09/14 07:39:40;;;;;;;1.88;1.60;;;;;;;24.17;47.24;100736.84;4999082;28;20037;-76
2022/09/14 07:42:05;;;;;;;1.38;1.27;;;;;;;24.09;47.36;100725.41;4992850;28;20103;-76
2022/09/14 07:44:31;;;;;;;2.72;1.85;;;;;;;24.16;47.35;100736.03;4999674;28;20046;-76
2022/09/14 07:46:56;;;;;;;1.58;1.48;;;;;;;24.17;47.27;100735.00;5003692;28;20080;-75
2022/09/14 07:49:22;;;;;;;2.00;1.65;;;;;;;24.14;47.42;100737.25;4998003;28;20503;-76
2022/09/14 07:51:48;;;;;;;2.33;1.60;;;;;;;24.17;47.31;100729.66;4995279;28;20213;-76
2022/09/14 07:54:15;;;;;;;2.00;1.75;;;;;;;24.19;47.42;100734.78;4983948;28;20976;-76
2022/09/14 07:56:42;;;;;;;1.77;1.30;;;;;;;24.18;47.38;100738.47;4968403;28;20782;-76
2022/09/14 07:59:12;;;;;;;1.67;1.58;;;;;;;24.21;47.28;100738.03;4994115;28;20049;-75
2022/09/14 08:01:38;;;;;;;2.80;1.40;;;;;;;24.29;47.23;100733.34;4988634;28;20916;-78
2022/09/14 08:04:08;;;;;;;4.45;1.63;;;;;;;24.41;46.89;100738.78;4941314;28;20077;-72
2022/09/14 08:06:36;;;;;;;5.93;1.35;;;;;;;24.57;46.64;100734.81;4995713;28;20050;-75
2022/09/14 08:09:06;;;;;;;9.10;2.38;;;;;;;24.60;46.53;100737.91;4990597;28;21661;-72
2022/09/14 08:11:34;;;;;;;5.20;1.40;;;;;;;24.68;46.12;100726.19;5002042;28;20045;-72
2022/09/14 08:14:05;;;;;;;5.13;1.80;;;;;;;24.74;45.78;100722.66;4999995;28;20433;-72
2022/09/14 08:16:33;;;;;;;3.80;1.60;;;;;;;24.63;46.30;100720.69;4999405;28;20049;-76
2022/09/14 08:19:05;;;;;;;4.07;1.42;;;;;;;24.56;46.14;100720.69;4986233;28;20052;-71
2022/09/14 08:21:31;;;;;;;6.90;1.80;;;;;;;24.57;46.21;100721.50;4996428;28;20519;-71
2022/09/14 08:23:58;;;;;;;2.72;1.40;;;;;;;24.74;45.92;100717.31;4999667;28;20705;-69
2022/09/14 08:26:26;;;;;;;4.30;1.58;;;;;;;24.82;45.73;100708.28;4997317;28;20042;-71
2022/09/14 08:28:53;;;;;;;6.00;1.67;;;;;;;24.91;45.62;100712.28;4988483;28;20452;-71
2022/09/14 08:31:21;;;;;;;6.63;1.88;;;;;;;24.98;45.19;100718.41;5000407;28;20057;-71
2022/09/14 08:33:52;;;;;;;4.75;1.55;;;;;;;25.00;45.35;100713.69;4968163;28;20080;-71
2022/09/14 08:36:20;;;;;;;4.78;1.70;;;;;;;24.98;45.21;100702.41;4999446;28;20057;-71
2022/09/14 08:38:46;;;;;;;2.55;1.60;;;;;;;25.04;45.02;100706.09;4998500;28;20044;-70
2022/09/14 08:41:18;;;;;;;4.40;1.65;;;;;;;25.10;45.35;100707.88;4998115;28;20633;-71
2022/09/14 08:43:44;;;;;;;3.20;1.33;;;;;;;24.98;45.38;100713.06;4994839;28;20088;-69
2022/09/14 08:46:22;;;;;;;3.15;1.33;;;;;;;24.92;45.75;100713.91;5001154;28;20041;-69
2022/09/14 08:48:48;;;;;;;2.33;1.45;;;;;;;24.92;45.20;100719.25;4992342;28;20461;-69
2022/09/14 08:51:15;;;;;;;2.08;1.40;;;;;;;24.87;45.37;100713.75;5003404;28;20388;-69
2022/09/14 08:53:42;;;;;;;2.42;1.33;;;;;;;24.92;45.05;100712.06;5001667;28;20104;-69
2022/09/14 08:56:18;;;;;;;1.88;1.42;;;;;;;24.86;44.95;100702.28;5005577;28;20073;-68
2022/09/14 08:59:04;;;;;;;5.22;1.65;;;;;;;24.89;45.20;100704.50;5003982;28;20507;-71
2022/09/14 09:01:36;;;;;;;2.33;1.48;;;;;;;24.82;45.00;100706.41;5005893;28;20438;-70
2022/09/14 09:04:23;;;;;;;3.78;1.75;;;;;;;24.81;44.89;100704.78;4981410;28;21493;-70
2022/09/14 09:07:03;;;;;;;7.65;2.40;;;;;;;24.80;44.68;100705.00;5002802;28;20053;-70
2022/09/14 09:09:41;;;;;;;3.97;1.80;;;;;;;24.81;44.80;100714.63;5006659;28;20397;-69
2022/09/14 09:12:13;;;;;;;5.38;1.63;;;;;;;24.77;44.88;100714.22;4987331;28;20568;-69
2022/09/14 09:14:43;;;;;;;3.53;1.52;;;;;;;24.76;44.80;100720.56;5001707;28;21020;-69
2022/09/14 09:17:39;;;;;;;8.30;1.80;;;;;;;24.79;44.96;100719.34;5002514;28;20037;-69
2022/09/14 09:20:10;;;;;;;4.15;1.40;;;;;;;24.77;44.79;100713.41;4984235;28;20081;-76
2022/09/14 09:22:41;;;;;;;4.80;1.48;;;;;;;24.76;44.78;100704.59;4999550;28;20049;-76
2022/09/14 09:25:22;;;;;;;5.40;1.92;;;;;;;24.74;45.16;100704.00;4997641;28;20041;-75
2022/09/14 09:27:49;;;;;;;9.13;2.13;;;;;;;24.78;44.84;100707.91;4997922;28;20049;-75
2022/09/14 09:30:15;;;;;;;7.00;1.83;;;;;;;24.75;45.00;100699.50;5000265;28;20052;-76
2022/09/14 09:32:41;;;;;;;5.38;1.65;;;;;;;24.79;44.96;100706.03;4970591;28;20038;-76
2022/09/14 09:35:32;;;;;;;4.63;1.73;;;;;;;24.77;45.07;100698.25;4980077;28;20040;-77
2022/09/14 09:38:14;;;;;;;7.72;2.15;;;;;;;24.69;45.01;100696.66;4979753;28;20049;-76
2022/09/14 09:40:45;;;;;;;8.15;2.10;;;;;;;24.76;45.08;100701.13;4998001;28;20065;-77
2022/09/14 09:43:17;;;;;;;6.22;2.03;;;;;;;24.73;45.20;100685.59;4995677;28;20125;-79
2022/09/14 09:45:45;;;;;;;4.75;1.80;;;;;;;24.72;45.54;100682.09;4999922;28;20136;-79
2022/09/14 09:48:13;;;;;;;4.90;1.73;;;;;;;24.73;45.59;100682.91;4985268;28;20128;-80
2022/09/14 09:51:05;;;;;;;5.95;1.88;;;;;;;24.74;45.57;100677.38;4997004;28;20444;-79
2022/09/14 09:53:33;;;;;;;4.55;1.65;;;;;;;24.73;45.33;100670.41;5005594;28;20240;-78
2022/09/14 09:56:00;;;;;;;4.80;1.85;;;;;;;24.76;45.16;100677.16;4999645;28;20029;-79
2022/09/14 09:58:33;;;;;;;4.82;1.52;;;;;;;24.74;45.60;100672.06;5000630;28;20424;-79
2022/09/14 10:01:19;;;;;;;6.88;1.90;;;;;;;24.75;45.71;100672.88;4981638;28;20648;-79
2022/09/14 10:04:05;;;;;;;5.68;1.88;;;;;;;24.73;45.61;100680.25;4973182;28;20037;-79
2022/09/14 10:06:39;;;;;;;3.90;1.80;;;;;;;24.70;45.70;100682.31;5004674;28;20088;-79
2022/09/14 10:09:12;;;;;;;6.68;1.88;;;;;;;24.67;45.09;100671.28;5005108;28;20121;-79
2022/09/14 10:11:38;;;;;;;5.57;1.77;;;;;;;24.72;45.32;100674.13;5005544;28;20103;-79
2022/09/14 10:14:04;;;;;;;7.80;1.92;;;;;;;24.71;45.13;100681.28;5003478;28;20037;-79
2022/09/14 10:16:36;;;;;;;6.50;1.60;;;;;;;24.70;45.12;100674.34;4999644;28;20511;-79
2022/09/14 10:19:02;;;;;;;5.80;1.70;;;;;;;24.68;45.33;100673.75;4986943;28;20823;-76
2022/09/14 10:21:30;;;;;;;6.13;2.10;;;;;;;24.71;45.28;100667.16;5000720;28;20132;-76
2022/09/14 10:24:24;;;;;;;7.32;2.08;;;;;;;24.66;44.97;100653.69;4998497;28;20061;-76
2022/09/14 10:26:50;;;;;;;5.47;1.70;;;;;;;24.70;44.88;100657.53;4998339;28;20050;-77
2022/09/14 10:29:41;;;;;;;8.82;2.00;;;;;;;24.75;44.97;100657.69;4998476;28;22471;-76
2022/09/14 10:32:22;;;;;;;3.83;1.77;;;;;;;24.71;45.21;100653.84;4988537;28;20061;-77
2022/09/14 10:34:50;;;;;;;4.13;1.83;;;;;;;24.72;45.14;100655.47;4986684;28;20787;-77
2022/09/14 10:37:23;;;;;;;3.42;1.88;;;;;;;24.73;44.79;100661.63;4998560;28;20044;-77
2022/09/14 10:40:15;;;;;;;4.97;1.70;;;;;;;24.74;44.86;100672.06;4998113;28;20127;-77
2022/09/14 10:42:52;;;;;;;7.68;2.45;;;;;;;24.75;44.61;100660.38;5000617;28;20044;-77
2022/09/14 10:45:27;;;;;;;4.93;1.63;;;;;;;24.77;44.29;100655.63;4997948;28;20147;-77
2022/09/14 10:48:17;;;;;;;4.72;1.90;;;;;;;24.77;44.40;100655.63;4998341;28;20048;-77
2022/09/14 10:50:56;;;;;;;5.22;1.80;;;;;;;24.77;44.27;100652.97;4987638;28;20061;-77
2022/09/14 10:53:56;;;;;;;7.53;1.90;;;;;;;24.76;44.31;100648.69;4997074;28;20397;-76
2022/09/14 10:56:31;;;;;;;5.78;1.60;;;;;;;24.75;44.36;100643.56;4997579;28;20045;-76
2022/09/14 10:59:07;;;;;;;5.82;2.00;;;;;;;24.72;44.72;100636.84;4997272;28;20476;-77
2022/09/14 11:01:46;;;;;;;5.63;1.95;;;;;;;24.74;44.27;100636.63;4980356;28;20464;-76
2022/09/14 11:04:34;;;;;;;4.60;1.65;;;;;;;24.75;44.41;100635.59;4986650;28;20048;-77
2022/09/14 11:07:27;;;;;;;5.55;2.10;;;;;;;24.75;44.43;100632.91;4995822;28;20080;-76
2022/09/14 11:10:05;;;;;;;4.55;1.70;;;;;;;24.71;44.28;100638.69;4997027;28;20045;-77
2022/09/14 11:12:30;;;;;;;3.72;1.55;;;;;;;24.75;43.97;100644.38;4995045;28;20530;-76
2022/09/14 11:15:09;;;;;;;3.72;1.23;;;;;;;24.65;44.34;100634.22;4997583;28;20034;-78
2022/09/14 11:18:15;;;;;;;6.57;2.05;;;;;;;24.72;44.36;100644.81;4996129;28;20038;-79
2022/09/14 11:21:19;;;;;;;11.23;1.63;;;;;;;24.70;44.50;100644.22;4915483;28;20049;-77
2022/09/14 11:23:51;;;;;;;5.45;1.70;;;;;;;24.73;44.50;100642.97;4998379;28;20120;-77
2022/09/14 11:26:30;;;;;;;4.50;1.80;;;;;;;24.73;44.41;100642.97;5052318;27;20775;-75
2022/09/14 11:29:17;;;;;;;5.53;1.83;;;;;;;24.75;44.38;100638.25;5050009;28;20139;-75
2022/09/14 11:31:50;;;;;;;5.60;1.52;;;;;;;24.67;44.55;100634.84;5050019;28;20036;-75
2022/09/14 11:34:26;;;;;;;5.40;2.05;;;;;;;24.73;44.05;100638.47;5054483;28;21358;-76
2022/09/14 11:37:04;;;;;;;10.70;1.70;;;;;;;24.68;44.08;100639.13;5040439;28;20525;-77
2022/09/14 11:39:41;;;;;;;7.03;2.30;;;;;;;24.75;44.14;100640.91;5057722;28;20148;-77
2022/09/14 11:42:32;;;;;;;5.47;1.70;;;;;;;24.76;44.13;100647.88;5054934;28;20040;-76
2022/09/14 11:45:16;;;;;;;5.40;1.58;;;;;;;24.75;43.83;100641.72;5058390;28;20046;-76